Bienfait, Canada
Current Conditions -  °F | °C
As of 9:00 AM on Tuesday 21 Oct 2014 (Local Time) from CYEN Reporting Station
Few Clouds Few Clouds  
Wind Chill: 40°   Ceiling: Unl
Heat Index: 45°   Visibility: 15mi
Dew Point: 37°   Wind: 9mph
Humidity: 76%   Direction: 110°ESE
Pressure: 29.75"   Gusts: NA
Location:  49.15°N, 102.8°W
Report Text: CYEN 211500Z 11008KT 15SM FEW100 FEW250 07/03 A2975 RMK AC1CI1SLP088
Loading
Personal Weather Stations






























Interactive Weather Map
Tropical Storm Tracking
New forecast layout! Learn more

10-Day Weather Forecast

Advertisements
Track Severe Weather on mobile